Time;durP1;ratioP1;P1;durP2;ratioP2;P2;SDS_P1;SDS_P2;PMS_P1;PMS_P2;Temp;Humidity;BMP_temperature;BMP_pressure;BME280_temperature;BME280_humidity;BME280_pressure;Samples;Min_cycle;Max_cycle;Signal;HPM_P1;HPM_P2
2021/01/29 00:02:34;;;;;;;39.40;17.57;;;;;;;-4.41;100.00;94126.94;10471479;28;20407;-73
2021/01/29 00:07:35;;;;;;;25.35;12.85;;;;;;;-4.36;100.00;94121.88;10489749;28;20691;-74
2021/01/29 00:12:35;;;;;;;23.02;12.63;;;;;;;-4.34;100.00;94125.16;10489915;28;20038;-74
2021/01/29 00:17:36;;;;;;;25.48;13.02;;;;;;;-4.23;100.00;94120.31;10488839;28;20071;-74
2021/01/29 00:22:36;;;;;;;31.40;14.07;;;;;;;-4.09;100.00;94114.09;10489175;28;20432;-74
2021/01/29 00:27:37;;;;;;;30.50;13.63;;;;;;;-4.00;100.00;94120.81;10489302;28;20021;-74
2021/01/29 00:32:37;;;;;;;23.35;12.18;;;;;;;-3.91;100.00;94112.75;10471186;28;20381;-74
2021/01/29 00:37:40;;;;;;;25.88;13.80;;;;;;;-3.99;100.00;94124.22;10488676;28;20028;-75
2021/01/29 00:42:40;;;;;;;23.65;13.65;;;;;;;-3.91;100.00;94134.53;10489055;28;20058;-74
2021/01/29 00:47:41;;;;;;;19.42;11.00;;;;;;;-3.83;100.00;94121.25;10471210;28;20502;-74
2021/01/29 00:52:41;;;;;;;27.38;16.20;;;;;;;-3.85;100.00;94125.06;10488701;28;20032;-74
2021/01/29 00:57:42;;;;;;;22.92;13.65;;;;;;;-3.89;100.00;94121.22;10504073;28;20507;-74
2021/01/29 01:02:43;;;;;;;26.02;14.02;;;;;;;-3.71;100.00;94125.91;10488316;28;20136;-74
2021/01/29 01:07:44;;;;;;;19.25;12.02;;;;;;;-3.60;100.00;94125.31;10488073;28;20117;-74
2021/01/29 01:12:44;;;;;;;25.88;12.25;;;;;;;-3.63;100.00;94136.22;10488066;28;20115;-74
2021/01/29 01:17:45;;;;;;;28.48;11.75;;;;;;;-3.65;100.00;94125.91;10488056;28;20025;-74
2021/01/29 01:22:46;;;;;;;23.30;11.73;;;;;;;-3.57;100.00;94117.03;10487065;28;20137;-74
2021/01/29 01:27:47;;;;;;;23.98;12.45;;;;;;;-3.38;100.00;94104.91;10489674;28;20028;-74
2021/01/29 01:32:48;;;;;;;20.17;10.25;;;;;;;-3.22;100.00;94081.84;10495049;28;20037;-74
2021/01/29 01:37:50;;;;;;;21.33;11.07;;;;;;;-3.17;100.00;94074.97;10494943;28;20455;-74
2021/01/29 01:42:51;;;;;;;27.45;11.55;;;;;;;-3.11;100.00;94062.88;10494476;28;20085;-74
2021/01/29 01:48:03;;;;;;;23.92;10.90;;;;;;;-3.16;100.00;94058.22;10494467;28;20111;-74
2021/01/29 01:53:15;;;;;;;22.20;11.90;;;;;;;-3.14;100.00;94071.13;10494235;28;20060;-74
2021/01/29 01:58:16;;;;;;;21.73;13.35;;;;;;;-3.16;100.00;94070.56;10494139;28;20036;-74
2021/01/29 02:03:31;;;;;;;25.65;11.30;;;;;;;-3.16;100.00;94065.28;10493850;28;20884;-74
2021/01/29 02:08:36;;;;;;;30.70;13.25;;;;;;;-3.21;100.00;94049.31;10493860;28;20102;-75
2021/01/29 02:13:36;;;;;;;25.40;11.40;;;;;;;-3.20;100.00;94045.69;10493484;28;20029;-75
2021/01/29 02:18:53;;;;;;;24.27;12.37;;;;;;;-3.21;100.00;94047.53;10493225;28;20028;-74
2021/01/29 02:24:25;;;;;;;15.98;11.57;;;;;;;-3.16;100.00;94054.78;10493375;28;20352;-74
2021/01/29 02:29:52;;;;;;;26.20;13.25;;;;;;;-3.12;100.00;94048.91;10452728;28;20496;-74
2021/01/29 02:35:14;;;;;;;20.77;11.70;;;;;;;-2.96;100.00;94052.09;10460954;28;20072;-74
2021/01/29 02:40:33;;;;;;;19.77;11.45;;;;;;;-2.96;100.00;94042.41;10491439;28;20036;-74
2021/01/29 02:45:47;;;;;;;27.40;11.40;;;;;;;-2.87;100.00;94031.66;10492266;28;20422;-74
2021/01/29 02:51:11;;;;;;;28.85;15.07;;;;;;;-2.88;100.00;94020.31;10492198;28;20032;-74
2021/01/29 02:56:36;;;;;;;23.83;10.77;;;;;;;-2.87;100.00;94029.84;10491729;28;20085;-74
2021/01/29 03:01:55;;;;;;;25.42;12.52;;;;;;;-2.90;100.00;94003.13;10491850;28;20039;-74
2021/01/29 03:07:13;;;;;;;21.58;11.25;;;;;;;-2.98;100.00;94002.38;10491471;28;20016;-74
2021/01/29 03:12:22;;;;;;;26.73;13.43;;;;;;;-2.98;100.00;93989.22;10491322;28;20044;-75
2021/01/29 03:17:33;;;;;;;26.63;13.25;;;;;;;-2.98;100.00;94022.59;10490882;28;20033;-75
2021/01/29 03:22:43;;;;;;;20.30;13.32;;;;;;;-2.94;100.00;94008.03;10490826;28;20044;-74
2021/01/29 03:27:48;;;;;;;27.85;14.15;;;;;;;-3.02;100.00;94003.78;10490403;28;20494;-74
2021/01/29 03:32:53;;;;;;;34.95;16.08;;;;;;;-3.02;100.00;93989.84;10490802;28;20530;-73
2021/01/29 03:38:15;;;;;;;24.25;13.30;;;;;;;-3.00;100.00;94011.47;10471978;28;20079;-74
2021/01/29 03:43:26;;;;;;;28.33;12.80;;;;;;;-2.89;100.00;93987.16;10490526;28;20043;-74
2021/01/29 03:49:00;;;;;;;19.98;11.18;;;;;;;-2.79;100.00;93992.78;10490257;28;20025;-75
2021/01/29 03:54:24;;;;;;;23.58;11.10;;;;;;;-2.72;100.00;93986.69;10489395;28;20028;-75
2021/01/29 03:59:34;;;;;;;24.48;13.10;;;;;;;-2.82;100.00;93987.97;10490154;28;20032;-74
2021/01/29 04:04:47;;;;;;;23.15;11.35;;;;;;;-2.76;100.00;94000.25;10489586;28;20023;-75
2021/01/29 04:09:57;;;;;;;29.02;12.82;;;;;;;-2.75;100.00;94001.06;10489531;28;20090;-74
2021/01/29 04:15:09;;;;;;;20.67;12.02;;;;;;;-2.75;100.00;93991.38;10488963;28;20090;-74
2021/01/29 04:20:23;;;;;;;30.30;11.77;;;;;;;-2.79;100.00;93998.06;10488748;28;20075;-74
2021/01/29 04:25:34;;;;;;;25.52;12.18;;;;;;;-2.72;100.00;93989.31;10488982;28;20031;-75
2021/01/29 04:30:39;;;;;;;22.02;11.27;;;;;;;-2.66;100.00;93981.41;10471269;28;20126;-73
2021/01/29 04:35:40;;;;;;;23.25;10.90;;;;;;;-2.48;100.00;93979.91;10489045;28;20117;-73
2021/01/29 04:40:52;;;;;;;18.45;10.50;;;;;;;-2.45;100.00;93980.28;10489140;28;20040;-73
2021/01/29 04:46:30;;;;;;;16.25;10.27;;;;;;;-2.52;100.00;93990.03;10488968;28;20070;-73
2021/01/29 04:52:07;;;;;;;28.02;11.30;;;;;;;-2.51;100.00;94001.34;10488504;28;20736;-73
2021/01/29 04:57:46;;;;;;;19.40;11.10;;;;;;;-2.44;100.00;94002.16;10488232;28;20025;-72
2021/01/29 05:02:50;;;;;;;27.25;10.20;;;;;;;-2.64;100.00;94003.06;10492546;28;20220;-73
2021/01/29 05:08:18;;;;;;;19.60;9.60;;;;;;;-2.65;100.00;93984.84;10496032;28;20032;-73
2021/01/29 05:13:40;;;;;;;27.60;11.57;;;;;;;-2.72;100.00;93992.78;10496088;28;20034;-73
2021/01/29 05:18:46;;;;;;;24.25;12.23;;;;;;;-2.69;100.00;93994.16;10495513;28;20055;-73
2021/01/29 05:24:14;;;;;;;31.67;12.95;;;;;;;-2.64;100.00;93978.56;10515220;28;20091;-73
2021/01/29 05:29:52;;;;;;;25.02;11.70;;;;;;;-2.58;100.00;94018.00;10522149;28;20467;-73
2021/01/29 05:35:23;;;;;;;22.88;11.68;;;;;;;-2.53;100.00;94011.31;10510704;28;20474;-70
2021/01/29 05:40:44;;;;;;;20.13;10.70;;;;;;;-2.45;100.00;94026.84;10494557;28;20111;-70
2021/01/29 05:45:53;;;;;;;24.02;11.68;;;;;;;-2.45;100.00;94016.31;10522020;28;20114;-71
2021/01/29 05:51:22;;;;;;;18.55;10.85;;;;;;;-2.45;100.00;94011.84;10535660;28;20032;-70
2021/01/29 05:56:30;;;;;;;29.17;15.13;;;;;;;-2.64;100.00;94020.66;10535681;28;20078;-69
2021/01/29 06:01:40;;;;;;;;;;;;;;;-2.69;100.00;94018.66;10535617;28;20059;-71
2021/01/29 06:06:55;;;;;;;27.40;15.05;;;;;;;-2.73;100.00;94035.84;10506986;28;19914;-76
2021/01/29 06:12:14;;;;;;;26.58;14.13;;;;;;;-2.65;100.00;94027.75;10499025;28;20541;-70
2021/01/29 06:17:26;;;;;;;27.80;13.50;;;;;;;-2.60;100.00;94024.47;10513821;28;20087;-70
2021/01/29 06:23:14;;;;;;;25.80;13.07;;;;;;;-2.60;100.00;94019.22;10519669;28;20067;-70
2021/01/29 06:28:49;;;;;;;33.55;15.15;;;;;;;-2.42;100.00;94019.31;10500180;28;20029;-70
2021/01/29 06:34:15;;;;;;;20.38;13.57;;;;;;;-2.02;100.00;94036.72;10525168;28;20127;-71
2021/01/29 06:39:21;;;;;;;25.77;13.10;;;;;;;-1.69;100.00;94038.31;10528010;28;20086;-70
2021/01/29 06:44:22;;;;;;;28.50;14.80;;;;;;;-1.40;100.00;94020.25;10498012;28;20043;-70
2021/01/29 06:49:25;;;;;;;32.67;14.63;;;;;;;-1.33;100.00;94041.28;10491321;28;20543;-70
2021/01/29 06:54:31;;;;;;;29.17;15.32;;;;;;;-1.26;100.00;94039.41;10490781;28;20440;-71
2021/01/29 07:00:00;;;;;;;32.30;13.43;;;;;;;-1.01;100.00;94049.91;10490788;28;20086;-70
2021/01/29 07:05:23;;;;;;;24.55;15.07;;;;;;;-0.87;100.00;94048.75;10495851;28;20034;-70
2021/01/29 07:10:56;;;;;;;33.60;14.15;;;;;;;-0.98;100.00;94051.31;10533128;28;20044;-69
2021/01/29 07:16:07;;;;;;;21.73;13.20;;;;;;;-0.66;100.00;94036.16;10478759;28;20047;-69
2021/01/29 07:21:21;;;;;;;31.15;14.13;;;;;;;-0.50;100.00;94045.31;10488779;28;20213;-70
2021/01/29 07:26:33;;;;;;;23.40;14.48;;;;;;;-0.43;100.00;94051.31;10487604;28;20056;-70
2021/01/29 07:32:01;;;;;;;26.02;13.20;;;;;;;-0.25;100.00;94055.78;10489467;28;20035;-70
2021/01/29 07:37:20;;;;;;;23.27;12.43;;;;;;;-0.03;100.00;94057.91;10489859;28;20094;-70
2021/01/29 07:42:42;;;;;;;21.02;9.95;;;;;;;-0.09;100.00;94061.47;10489924;28;20040;-71
2021/01/29 07:48:22;;;;;;;19.30;9.88;;;;;;;0.19;100.00;94057.44;10505215;28;20528;-71
2021/01/29 07:53:51;;;;;;;20.08;10.30;;;;;;;0.45;100.00;94046.47;10489487;28;20025;-71
2021/01/29 07:59:13;;;;;;;22.20;10.73;;;;;;;0.83;100.00;94033.88;10470102;28;20080;-70
2021/01/29 08:04:22;;;;;;;32.92;13.43;;;;;;;0.90;100.00;94034.56;10489401;28;20028;-70
2021/01/29 08:09:29;;;;;;;32.80;14.85;;;;;;;0.75;100.00;94027.06;10489533;28;20098;-70
2021/01/29 08:14:59;;;;;;;30.10;14.55;;;;;;;0.50;100.00;94035.19;10489527;28;20064;-71
2021/01/29 08:20:20;;;;;;;27.65;14.23;;;;;;;0.73;100.00;94039.72;10489405;28;20545;-70
2021/01/29 08:25:37;;;;;;;20.08;13.05;;;;;;;0.88;100.00;94054.34;10488947;28;20124;-69
2021/01/29 08:31:03;;;;;;;34.35;16.48;;;;;;;1.03;100.00;94067.91;10488904;28;20037;-71
2021/01/29 08:36:25;;;;;;;39.15;18.13;;;;;;;1.28;100.00;94057.06;10489404;28;20115;-70
2021/01/29 08:41:41;;;;;;;31.90;17.60;;;;;;;1.39;100.00;94075.84;10512498;28;20036;-70
2021/01/29 08:47:01;;;;;;;37.70;16.65;;;;;;;1.73;100.00;94090.06;10497040;28;20060;-70
2021/01/29 08:52:31;;;;;;;33.97;15.85;;;;;;;1.90;100.00;94068.94;10497074;28;20395;-69
2021/01/29 08:57:49;;;;;;;37.15;16.50;;;;;;;1.94;100.00;94062.13;10478664;28;20585;-71
2021/01/29 09:03:07;;;;;;;29.60;14.27;;;;;;;1.85;100.00;94072.28;10496115;28;20495;-71
2021/01/29 09:08:09;;;;;;;27.77;14.23;;;;;;;1.51;100.00;94066.06;10496250;28;20071;-71
2021/01/29 09:13:16;;;;;;;29.20;14.50;;;;;;;1.38;100.00;94084.81;10495594;28;20035;-71
2021/01/29 09:18:29;;;;;;;27.30;14.80;;;;;;;1.65;100.00;94072.69;10478053;28;20035;-71
2021/01/29 09:23:40;;;;;;;31.17;14.07;;;;;;;1.62;100.00;94064.41;10495542;28;20053;-71
2021/01/29 09:28:44;;;;;;;31.13;12.68;;;;;;;2.01;100.00;94068.09;10495801;28;20025;-71
2021/01/29 09:33:56;;;;;;;35.10;16.60;;;;;;;2.19;100.00;94058.34;10495327;28;20527;-71
2021/01/29 09:39:16;;;;;;;37.05;17.27;;;;;;;2.26;100.00;94048.41;10494941;28;20034;-70
2021/01/29 09:44:41;;;;;;;41.80;14.65;;;;;;;2.49;100.00;94038.72;10494830;28;20024;-70
2021/01/29 09:49:43;;;;;;;36.78;14.65;;;;;;;2.74;100.00;94033.03;10494142;28;20051;-70
2021/01/29 09:54:43;;;;;;;39.88;17.08;;;;;;;3.29;100.00;94027.97;10494322;28;21043;-70
2021/01/29 09:59:55;;;;;;;36.77;17.73;;;;;;;3.75;100.00;94033.88;10493680;28;20174;-70
2021/01/29 10:05:25;;;;;;;42.40;18.60;;;;;;;3.67;100.00;94027.16;10493488;28;20096;-70
2021/01/29 10:10:43;;;;;;;34.88;15.57;;;;;;;3.74;100.00;94014.47;10493803;28;20114;-71
2021/01/29 10:16:05;;;;;;;27.87;12.13;;;;;;;4.71;97.21;94018.34;10493714;28;20032;-71
2021/01/29 10:21:19;;;;;;;32.38;14.65;;;;;;;4.75;94.28;94014.13;10501110;28;20182;-71
2021/01/29 10:26:26;;;;;;;35.45;15.85;;;;;;;4.47;92.92;94002.72;10531339;28;20027;-71
2021/01/29 10:31:30;;;;;;;49.47;19.23;;;;;;;4.43;96.79;94001.59;10531449;28;20024;-70
2021/01/29 10:36:33;;;;;;;37.72;17.20;;;;;;;5.41;87.64;94004.97;10488958;28;20427;-70
2021/01/29 10:41:49;;;;;;;35.85;15.95;;;;;;;6.01;84.18;94004.69;10520330;28;20073;-70
2021/01/29 10:47:01;;;;;;;27.38;14.90;;;;;;;5.83;80.09;93996.06;10528947;28;20027;-70
2021/01/29 10:52:35;;;;;;;28.95;13.73;;;;;;;7.38;75.76;93985.50;10528398;28;20024;-71
2021/01/29 10:58:00;;;;;;;28.40;13.00;;;;;;;7.41;64.22;93979.63;10529670;28;20082;-69
2021/01/29 11:03:09;;;;;;;24.73;12.82;;;;;;;6.49;74.27;93962.63;10528505;28;20028;-69
2021/01/29 11:08:15;;;;;;;30.67;15.07;;;;;;;6.05;77.58;93944.44;10531260;28;20099;-69
2021/01/29 11:13:46;;;;;;;35.60;15.63;;;;;;;6.91;76.86;93939.41;10531071;28;20032;-69
2021/01/29 11:18:57;;;;;;;40.83;14.50;;;;;;;8.81;60.86;93918.91;10519871;28;20048;-69
2021/01/29 11:24:15;;;;;;;25.23;11.25;;;;;;;9.98;54.35;93929.41;10566088;27;20358;-71
2021/01/29 11:29:39;;;;;;;28.88;13.45;;;;;;;9.09;57.60;93919.97;10565086;28;20047;-70
2021/01/29 11:34:40;;;;;;;27.38;12.57;;;;;;;8.98;59.69;93905.88;10566170;28;20078;-71
2021/01/29 11:39:51;;;;;;;22.77;11.60;;;;;;;11.29;49.09;93877.59;10565809;28;20103;-71
2021/01/29 11:45:02;;;;;;;24.17;12.77;;;;;;;11.25;49.93;93862.38;10565769;28;20165;-69
2021/01/29 11:50:14;;;;;;;26.60;13.10;;;;;;;11.06;49.24;93847.09;10565572;28;20026;-69
2021/01/29 11:55:24;;;;;;;28.38;12.20;;;;;;;12.21;46.67;93819.44;10565645;28;20024;-70
2021/01/29 12:00:36;;;;;;;27.35;12.20;;;;;;;11.71;47.99;93809.50;10564467;28;20023;-70
2021/01/29 12:05:48;;;;;;;20.67;11.55;;;;;;;10.68;50.46;93800.78;10564501;28;20040;-70
2021/01/29 12:10:51;;;;;;;25.92;13.68;;;;;;;8.71;56.41;93801.94;10564950;28;20035;-70
2021/01/29 12:15:59;;;;;;;25.60;12.85;;;;;;;7.60;65.77;93796.13;10564279;28;20592;-70
2021/01/29 12:21:08;;;;;;;;;;;;;;;6.92;78.41;93788.72;10575105;28;20478;-71
2021/01/29 12:26:31;;;;;;;25.38;12.65;;;;;;;6.13;81.12;93773.19;10563846;28;20003;-70
2021/01/29 12:31:44;;;;;;;31.27;14.75;;;;;;;5.59;89.44;93779.81;10557016;28;20027;-70
2021/01/29 12:36:56;;;;;;;31.10;14.82;;;;;;;5.30;98.81;93782.97;10535044;28;20036;-70
2021/01/29 12:42:02;;;;;;;29.00;15.25;;;;;;;5.12;98.21;93798.38;10533657;28;20020;-70
2021/01/29 12:47:18;;;;;;;29.42;14.80;;;;;;;5.10;99.15;93775.75;10533667;28;20023;-71
2021/01/29 12:52:34;;;;;;;33.38;17.55;;;;;;;4.93;100.00;93775.97;10534412;28;20340;-70
2021/01/29 12:57:35;;;;;;;27.33;14.70;;;;;;;5.05;100.00;93789.84;10534921;28;20555;-70
2021/01/29 13:02:50;;;;;;;27.92;14.77;;;;;;;5.08;100.00;93786.66;10515937;28;20016;-70
2021/01/29 13:08:15;;;;;;;28.48;13.77;;;;;;;5.12;100.00;93779.75;10533962;28;20285;-70
2021/01/29 13:13:18;;;;;;;31.67;14.43;;;;;;;5.11;100.00;93775.47;10533305;28;20099;-70
2021/01/29 13:18:44;;;;;;;33.83;16.13;;;;;;;5.24;100.00;93776.81;10568131;28;20023;-70
2021/01/29 13:23:47;;;;;;;37.47;17.77;;;;;;;5.13;100.00;93751.22;10574504;28;20449;-70
2021/01/29 13:29:13;;;;;;;36.40;17.10;;;;;;;5.04;100.00;93740.31;10575199;28;20046;-70
2021/01/29 13:34:18;;;;;;;38.90;16.60;;;;;;;4.73;100.00;93723.44;10574409;28;20027;-70
2021/01/29 13:39:23;;;;;;;35.80;16.45;;;;;;;4.55;100.00;93728.19;10574600;28;20025;-70
2021/01/29 13:44:37;;;;;;;40.35;16.08;;;;;;;4.48;100.00;93729.47;10565141;28;20105;-69
2021/01/29 13:49:41;;;;;;;31.35;16.38;;;;;;;4.32;100.00;93729.38;10531079;28;20109;-69
2021/01/29 13:54:41;;;;;;;38.55;17.13;;;;;;;4.19;100.00;93729.88;10531593;28;20032;-69
2021/01/29 13:59:49;;;;;;;29.98;15.07;;;;;;;4.28;100.00;93702.53;10531471;28;20020;-69
2021/01/29 14:04:59;;;;;;;36.73;17.07;;;;;;;4.15;100.00;93688.91;10530822;28;20024;-69
2021/01/29 14:09:59;;;;;;;26.35;13.05;;;;;;;4.06;100.00;93694.72;10530922;28;20011;-69
2021/01/29 14:15:15;;;;;;;33.67;15.57;;;;;;;4.02;100.00;93664.38;10537853;28;20023;-70
2021/01/29 14:20:34;;;;;;;21.30;11.10;;;;;;;4.09;100.00;93667.59;10571952;28;20048;-70
2021/01/29 14:25:44;;;;;;;29.17;14.02;;;;;;;4.12;100.00;93652.97;10573252;28;20027;-70
2021/01/29 14:30:51;;;;;;;26.90;14.23;;;;;;;4.14;100.00;93664.16;10571959;28;20548;-69
2021/01/29 14:36:25;;;;;;;26.55;11.75;;;;;;;4.02;100.00;93675.00;10571855;28;20795;-69
2021/01/29 14:41:34;;;;;;;19.83;12.05;;;;;;;3.75;100.00;93662.63;10572406;28;20115;-69
2021/01/29 14:47:00;;;;;;;26.20;12.50;;;;;;;3.84;100.00;93672.78;10572677;28;20019;-70
2021/01/29 14:52:15;;;;;;;23.83;12.45;;;;;;;3.72;100.00;93665.00;10569964;28;20032;-69
2021/01/29 14:57:38;;;;;;;29.25;14.13;;;;;;;3.56;100.00;93672.09;10528584;28;20491;-69
2021/01/29 15:02:53;;;;;;;25.02;12.88;;;;;;;3.48;100.00;93656.63;10544298;28;20024;-70
2021/01/29 15:07:55;;;;;;;27.00;13.07;;;;;;;3.33;100.00;93655.44;10529529;28;20020;-70
2021/01/29 15:12:56;;;;;;;28.58;14.48;;;;;;;3.27;100.00;93645.06;10529698;28;20024;-70
2021/01/29 15:18:00;;;;;;;32.03;14.23;;;;;;;3.28;100.00;93655.41;10561151;28;20035;-70
2021/01/29 15:23:12;;;;;;;29.67;14.57;;;;;;;3.24;100.00;93655.09;10545483;28;20417;-69
2021/01/29 15:28:34;;;;;;;35.20;14.70;;;;;;;2.99;100.00;93665.53;10510068;28;20111;-70
2021/01/29 15:33:38;;;;;;;27.77;14.23;;;;;;;2.84;100.00;93661.66;10524091;28;20020;-70
2021/01/29 15:39:01;;;;;;;27.85;13.48;;;;;;;2.88;100.00;93656.66;10568859;28;20055;-70
2021/01/29 15:44:05;;;;;;;32.95;14.80;;;;;;;2.85;100.00;93649.22;10498469;28;20054;-69
2021/01/29 15:49:27;;;;;;;30.50;14.20;;;;;;;2.84;100.00;93664.31;10527556;28;20062;-69
2021/01/29 15:54:35;;;;;;;27.80;16.45;;;;;;;2.84;100.00;93655.56;10527665;28;20031;-70
2021/01/29 15:59:35;;;;;;;39.60;16.70;;;;;;;2.89;100.00;93653.75;10528493;28;20463;-70
2021/01/29 16:04:40;;;;;;;38.03;16.30;;;;;;;2.83;100.00;93652.13;10527171;28;20089;-70
2021/01/29 16:09:57;;;;;;;36.45;16.38;;;;;;;2.82;100.00;93671.75;10533793;28;20265;-70
2021/01/29 16:15:12;;;;;;;40.97;19.27;;;;;;;2.74;100.00;93664.22;10577571;28;20046;-70
2021/01/29 16:20:21;;;;;;;31.58;17.27;;;;;;;2.88;100.00;93668.06;10565515;28;20054;-70
2021/01/29 16:25:21;;;;;;;;;;;;;;;2.91;100.00;93653.50;10590845;28;20047;-69
2021/01/29 16:30:26;;;;;;;26.05;13.75;;;;;;;2.84;100.00;93669.63;10577633;28;19916;-69
2021/01/29 16:35:38;;;;;;;30.60;16.08;;;;;;;2.80;100.00;93636.69;10576406;28;20026;-70
2021/01/29 16:40:42;;;;;;;31.45;14.98;;;;;;;2.72;100.00;93635.31;10575878;28;20027;-69
2021/01/29 16:45:50;;;;;;;23.10;12.98;;;;;;;2.71;100.00;93646.16;10560428;28;20482;-69
2021/01/29 16:50:55;;;;;;;24.53;12.50;;;;;;;2.67;100.00;93648.50;10534600;28;20467;-69
2021/01/29 16:56:18;;;;;;;27.17;14.18;;;;;;;2.74;100.00;93645.66;10534192;28;20269;-69
2021/01/29 17:01:28;;;;;;;26.20;13.10;;;;;;;2.82;100.00;93669.09;10534953;28;20108;-69
2021/01/29 17:06:32;;;;;;;27.90;13.35;;;;;;;2.77;100.00;93637.19;10530941;28;20028;-69
2021/01/29 17:11:36;;;;;;;32.20;14.73;;;;;;;2.83;100.00;93653.97;10559760;28;20519;-69
2021/01/29 17:16:38;;;;;;;34.40;15.23;;;;;;;2.83;100.00;93636.22;10553976;28;20055;-70
2021/01/29 17:21:42;;;;;;;28.75;15.05;;;;;;;2.69;100.00;93625.19;10574679;28;20048;-70
2021/01/29 17:26:47;;;;;;;34.35;17.85;;;;;;;2.69;100.00;93613.78;10574636;28;20019;-71
2021/01/29 17:31:48;;;;;;;32.47;17.38;;;;;;;2.72;100.00;93610.59;10556614;28;20020;-73
2021/01/29 17:36:49;;;;;;;30.98;16.02;;;;;;;2.87;100.00;93594.03;10537437;28;20112;-73
2021/01/29 17:41:52;;;;;;;35.53;16.67;;;;;;;2.88;100.00;93592.97;10560979;28;20107;-73
2021/01/29 17:47:05;;;;;;;32.58;16.45;;;;;;;2.94;100.00;93588.50;10570570;28;20034;-73
2021/01/29 17:52:12;;;;;;;36.60;16.15;;;;;;;2.97;100.00;93577.38;10568819;28;20016;-73
2021/01/29 17:57:33;;;;;;;40.55;20.65;;;;;;;2.86;100.00;93584.47;10570416;28;20107;-73
2021/01/29 18:02:34;;;;;;;40.42;19.08;;;;;;;2.79;100.00;93587.34;10551622;28;20086;-74
2021/01/29 18:07:39;;;;;;;39.97;18.80;;;;;;;2.84;100.00;93563.50;10570829;28;20038;-73
2021/01/29 18:12:40;;;;;;;82.78;31.42;;;;;;;2.73;100.00;93575.06;10568460;28;20032;-73
2021/01/29 18:18:03;;;;;;;83.78;33.83;;;;;;;2.88;100.00;93574.41;10568128;28;20034;-73
2021/01/29 18:23:17;;;;;;;69.80;30.85;;;;;;;2.92;100.00;93599.38;10569513;28;20043;-73
2021/01/29 18:28:20;;;;;;;111.57;47.92;;;;;;;2.60;100.00;93572.84;10567378;28;20028;-73
2021/01/29 18:33:26;;;;;;;114.68;47.85;;;;;;;2.49;100.00;93562.13;10570700;28;20046;-73
2021/01/29 18:38:27;;;;;;;87.32;40.10;;;;;;;2.13;100.00;93576.91;10565948;28;20027;-73
2021/01/29 18:43:27;;;;;;;79.72;35.97;;;;;;;2.07;100.00;93557.50;10551877;28;20413;-73
2021/01/29 18:48:28;;;;;;;53.25;28.77;;;;;;;1.96;100.00;93532.72;10569628;28;20027;-73
2021/01/29 18:53:28;;;;;;;66.07;32.43;;;;;;;2.08;100.00;93516.69;10559544;28;20028;-73
2021/01/29 18:58:29;;;;;;;57.70;28.50;;;;;;;2.13;100.00;93482.28;10569365;28;20273;-72
2021/01/29 19:03:30;;;;;;;53.45;24.63;;;;;;;2.15;100.00;93512.00;10564469;28;20031;-73
2021/01/29 19:08:30;;;;;;;60.40;27.88;;;;;;;2.26;100.00;93496.19;10566808;28;20558;-73
2021/01/29 19:13:30;;;;;;;57.17;27.38;;;;;;;2.28;100.00;93480.84;10551289;28;20110;-73
2021/01/29 19:18:31;;;;;;;58.03;26.10;;;;;;;2.35;100.00;93484.06;10566752;28;20449;-73
2021/01/29 19:23:32;;;;;;;49.92;25.17;;;;;;;2.44;100.00;93487.84;10554822;28;20044;-73
2021/01/29 19:28:33;;;;;;;51.00;24.90;;;;;;;2.51;100.00;93475.19;10567639;28;20103;-72
2021/01/29 19:33:33;;;;;;;60.72;25.00;;;;;;;2.60;100.00;93491.44;10571104;28;20100;-70
2021/01/29 19:38:34;;;;;;;48.25;24.13;;;;;;;2.31;100.00;93498.88;10572072;28;20055;-70
2021/01/29 19:43:37;;;;;;;54.23;25.43;;;;;;;2.36;100.00;93485.69;10574718;28;20035;-70
2021/01/29 19:48:37;;;;;;;53.70;26.35;;;;;;;2.09;100.00;93494.44;10536593;28;20410;-70
2021/01/29 19:53:38;;;;;;;56.22;21.45;;;;;;;2.16;100.00;93471.19;10535650;28;20028;-70
2021/01/29 19:58:38;;;;;;;47.08;22.55;;;;;;;2.25;100.00;93473.38;10536336;28;20024;-70
2021/01/29 20:03:40;;;;;;;28.53;14.93;;;;;;;2.42;100.00;93444.88;10536921;28;20042;-70
2021/01/29 20:08:41;;;;;;;29.65;13.70;;;;;;;2.59;100.00;93457.19;10536590;28;20286;-72
2021/01/29 20:13:41;;;;;;;32.42;14.52;;;;;;;2.80;100.00;93445.66;10536700;28;20023;-68
2021/01/29 20:18:42;;;;;;;34.00;18.65;;;;;;;2.97;100.00;93455.31;10556397;28;20035;-69
2021/01/29 20:23:42;;;;;;;37.10;20.20;;;;;;;3.01;100.00;93440.47;10577855;28;20043;-68
2021/01/29 20:28:44;;;;;;;41.13;17.53;;;;;;;3.03;100.00;93446.34;10560677;28;20335;-68
2021/01/29 20:33:46;;;;;;;36.85;19.33;;;;;;;2.99;100.00;93445.25;10535039;28;20096;-69
2021/01/29 20:38:47;;;;;;;39.53;20.15;;;;;;;3.04;100.00;93434.63;10535320;28;20035;-69
2021/01/29 20:43:48;;;;;;;42.95;20.75;;;;;;;2.91;100.00;93442.00;10535339;28;20024;-69
2021/01/29 20:48:48;;;;;;;41.47;20.85;;;;;;;2.76;100.00;93431.31;10535509;28;20036;-68
2021/01/29 20:53:49;;;;;;;47.17;23.15;;;;;;;2.81;100.00;93431.34;10534487;28;20024;-68
2021/01/29 20:58:49;;;;;;;45.58;24.13;;;;;;;2.67;100.00;93423.03;10535032;28;20032;-69
2021/01/29 21:03:50;;;;;;;47.05;24.05;;;;;;;2.78;100.00;93412.47;10534684;28;20049;-68
2021/01/29 21:08:50;;;;;;;48.67;23.48;;;;;;;2.77;100.00;93402.94;10535235;28;20399;-68
2021/01/29 21:13:51;;;;;;;43.77;20.83;;;;;;;2.85;100.00;93407.75;10541648;28;20024;-69
2021/01/29 21:18:51;;;;;;;42.70;22.23;;;;;;;2.80;100.00;93400.56;10575657;28;20354;-69
2021/01/29 21:23:52;;;;;;;49.17;22.52;;;;;;;2.90;100.00;93397.97;10574516;28;20919;-68
2021/01/29 21:28:52;;;;;;;46.72;22.35;;;;;;;2.72;100.00;93403.69;10574766;28;20035;-69
2021/01/29 21:33:52;;;;;;;40.37;20.63;;;;;;;2.74;100.00;93383.81;10575302;28;20027;-68
2021/01/29 21:38:53;;;;;;;42.93;21.83;;;;;;;2.96;100.00;93376.75;10569230;28;20304;-68
2021/01/29 21:43:53;;;;;;;37.37;20.47;;;;;;;2.82;100.00;93379.88;10575099;28;20049;-68
2021/01/29 21:48:53;;;;;;;39.00;21.57;;;;;;;3.00;100.00;93373.31;10555819;28;20281;-68
2021/01/29 21:53:54;;;;;;;41.03;20.98;;;;;;;3.06;100.00;93360.88;10570625;28;20326;-69
2021/01/29 21:58:54;;;;;;;34.55;15.70;;;;;;;3.02;100.00;93346.53;10574907;28;20505;-69
2021/01/29 22:03:55;;;;;;;35.05;16.50;;;;;;;3.08;100.00;93342.81;10568545;28;20035;-69
2021/01/29 22:08:55;;;;;;;27.00;13.57;;;;;;;3.15;100.00;93335.41;10532321;28;20102;-69
2021/01/29 22:13:55;;;;;;;26.93;12.93;;;;;;;3.14;100.00;93320.56;10541446;28;20027;-69
2021/01/29 22:18:56;;;;;;;31.20;15.75;;;;;;;2.97;100.00;93319.97;10573817;28;20031;-69
2021/01/29 22:23:56;;;;;;;31.73;16.45;;;;;;;2.96;100.00;93321.81;10557230;28;20134;-69
2021/01/29 22:28:57;;;;;;;28.80;16.10;;;;;;;3.05;100.00;93308.84;10541379;28;20038;-69
2021/01/29 22:33:57;;;;;;;30.67;14.82;;;;;;;3.14;100.00;93307.28;10538473;28;20031;-68
2021/01/29 22:38:58;;;;;;;33.78;16.85;;;;;;;3.04;100.00;93297.44;10571213;28;20049;-68
2021/01/29 22:43:58;;;;;;;34.47;17.63;;;;;;;3.00;100.00;93290.25;10572734;28;20027;-68
2021/01/29 22:48:58;;;;;;;30.52;14.55;;;;;;;2.82;100.00;93273.75;10553546;28;20780;-69
2021/01/29 22:53:59;;;;;;;29.05;15.73;;;;;;;2.85;100.00;93262.59;10569923;28;20427;-68
2021/01/29 22:58:59;;;;;;;41.10;16.87;;;;;;;2.81;100.00;93248.28;10530966;28;20035;-68
2021/01/29 23:04:00;;;;;;;38.33;16.97;;;;;;;2.77;100.00;93241.88;10571644;28;20341;-69
2021/01/29 23:09:01;;;;;;;31.13;16.90;;;;;;;2.69;100.00;93239.75;10558134;28;20334;-68
2021/01/29 23:14:01;;;;;;;35.88;16.75;;;;;;;2.53;100.00;93239.69;10553020;28;20530;-70
2021/01/29 23:19:04;;;;;;;39.58;18.48;;;;;;;2.58;100.00;93227.50;10569824;28;20039;-69
2021/01/29 23:24:05;;;;;;;40.38;17.63;;;;;;;2.62;100.00;93221.41;10571452;28;20040;-69
2021/01/29 23:29:05;;;;;;;39.08;18.65;;;;;;;2.67;100.00;93202.09;10570040;28;20028;-69